Aérodrome :
LOGIN :

S'inscrire | Disclaimer

   EN    FR    IT 

 










Légende :    VFR   VFR Marginal   IFR   IFR Intensif   IFR Très Intensif
Visi : 
Plafond : 
>= 8 km
>= 3000ft
5 à 8 km
1000 à 3000 ft
1500m à 5 km
500 à 1000 ft
800 à 1500m
200 à 500 ft
< 800m
< 200 ft
Symboles :   Orages  Brouillard  Fortes neiges  Fortes précipitations  Vent > 20 kt
SIGMETs :   Divers  Orages  Givrage  Turbulence  Onde Orograph.  Cendres Volcan.






- Altitude de l'aérodrome : 288 ft
- Code IATA : BZZ


EGVN - RAF Brize Norton

DERNIER METAR :
  • 101020Z 20015G28KT 9999 -RA BKN015 OVC023 09/07 Q1012 TEMPO 5000 RA BKN012 RMK WHT TEMPO GRN

METARs EXPIRÉS :
  • 100950Z 19012G23KT 7000 -RA BKN013 OVC023 09/07 Q1013 TEMPO 9999
  • 100920Z 19011KT 9999 BKN014 OVC023 09/07 Q1014 TEMPO 7000 RA RMK GRN TEMPO GRN
  • 100850Z 19012KT 9999 BKN015 08/06 Q1014 TEMPO BKN014 RMK WHT TEMPO GRN
  • 100820Z 19010KT 9999 -RA SCT016 OVC023 08/06 Q1015 TEMPO SCT014
  • 100750Z 19009KT 9999 BKN016 07/05 Q1016 TEMPO BKN014 RMK WHT TEMPO GRN

TAF TAF EGVN
Valide du 10 à 09h jusqu'au 11 à 09h UTC


100748Z 1009/1109 19015G25KT 9999 BKN015
TEMPO 1009/1021 7000 RA BKN012
PROB30
TEMPO 1011/1019 20020G35KT
PROB30
TEMPO 1016/1021 4000 +RA
BECMG 1018/1021 26007KT FEW030



MET'MAP, la Météo Aéronautique d'un coup d'oeil ! - Copyright ORBIFLY Décembre 2007 - Disclaimer

ORBIFLY MET'MAP TEAM :

Programmation & Développement : Alexandra Zaïnal
Sur une idée originale de : Baudouin d'Aumeries
Assistance à la programmation : Marc-Olivier Méhu
Soutien technique & logistique : Manuel Goepfert

Contact : metmap@orbifly.com




SOURCES & CREDITS :

   NOAA